Essex County Airport

Airport
ICAO code: 
KCDW
IATA Code: 
CDW
Summary
ICAO Region: 
NAM
Territory: 
Location: 
Caldwell, New Jersey,
Serving: 
Caldwell
Elevation: 
173 ft
Coordinates: 
Aerial View: 
40° 52' 29.19" N, 74° 16' 51.935" W
Airport WX: 
Tropical Revolving Storm
Metar
Observation
KCDW 021353Z 00000KT 2SM BR CLR 08/06 A2983 RMK AO2 SLP106 T00780056
Station
Caldwell, Essex County Airport
Date/Time
2021-12-02 13:53:00
Wind direction
Wind speed
00 kts
Lowest cloud amount
n/a
Temperature
7.8°C
Dew point
5.6°C
Humidity
85%
Weather condition
mist

Description

Essex County Airport is a public use airport located 3 km north of the central business district of Caldwell, in Essex County, New Jersey.

Climatology

Humid “subtropical” climate (Köppen climate classification Cfa) - characterized by hot, humid summers and cool winters. Significant amounts of precipitation occur in all seasons in most areas. Winter rainfall (and sometimes snowfall) is associated with large storms that the westerlies steer from west to east. Most summer rainfall occurs during thunderstorms and occasional tropical storms (hurricanes).

Runways

Designator Length Width Surface Rops
10/28 1134 23 ASPH-G No/No
4/22 1388 24 ASP No/No
Airport map: 
Aerial View: 

SKYbrary Partners:

Safety knowledge contributed by: